Terminal Aerodrome Forecast
Issued by NWS

Current Version | Previous Version | Text Only | Print | Product List | Glossary On
Versions: 1 2 3 4 5 6 7 8 9 10 11 12 13
942
FTUS46 KPDT 290520
TAFDLS
TAF
KDLS 290520Z 2906/3006 30010KT P6SM SCT070
     FM291700 31020G30KT P6SM SCT070=

USA.gov is the U.S. government's official web portal to all federal, state and local government web resources and services.